createdAt,value
2023-04-16T00:01:31.921Z,23.10
2023-04-16T00:03:33.967Z,23.95
2023-04-16T00:05:36.252Z,23.17
2023-04-16T00:09:39.923Z,22.90
2023-04-16T00:11:41.787Z,23.15
2023-04-16T00:13:43.761Z,24.92
2023-04-16T00:15:45.831Z,24.40
2023-04-16T00:19:49.720Z,22.65
2023-04-16T00:21:51.565Z,24.05
2023-04-16T00:23:53.568Z,22.92
2023-04-16T00:25:57.310Z,25.08
2023-04-16T00:27:59.205Z,24.13
2023-04-16T00:30:01.048Z,25.27
2023-04-16T00:32:02.986Z,24.33
2023-04-16T00:34:04.873Z,25.55
2023-04-16T00:36:07.455Z,25.23
2023-04-16T00:38:09.489Z,23.80
2023-04-16T00:42:13.335Z,22.95
2023-04-16T00:44:15.256Z,23.38
2023-04-16T00:46:19.103Z,25.05
2023-04-16T00:48:21.539Z,22.83
2023-04-16T00:50:23.937Z,23.38
2023-04-16T00:52:26.647Z,23.58
2023-04-16T00:54:29.118Z,22.75
2023-04-16T00:56:33.377Z,22.77
2023-04-16T00:58:35.768Z,22.98
2023-04-16T01:00:37.632Z,23.95
2023-04-16T01:02:39.823Z,23.48
2023-04-16T01:04:42.381Z,22.92
2023-04-16T01:06:44.279Z,25.13
2023-04-16T01:08:47.157Z,23.77
2023-04-16T01:10:49.008Z,24.48
2023-04-16T01:12:50.942Z,24.35
2023-04-16T01:14:53.023Z,23.83
2023-04-16T01:18:56.687Z,22.40
2023-04-16T01:20:58.689Z,24.42
2023-04-16T01:23:00.531Z,25.38
2023-04-16T01:25:02.503Z,23.52
2023-04-16T01:27:04.443Z,22.90
2023-04-16T01:29:06.549Z,22.63
2023-04-16T01:33:14.389Z,23.42
2023-04-16T01:35:18.136Z,22.85
2023-04-16T01:37:20.038Z,23.42
2023-04-16T01:39:22.454Z,22.67
2023-04-16T01:41:24.358Z,22.23
2023-04-16T01:43:26.274Z,23.13
2023-04-16T01:45:28.224Z,22.45
2023-04-16T01:47:30.221Z,22.83
2023-04-16T01:51:34.019Z,24.75
2023-04-16T01:53:37.213Z,22.52
2023-04-16T01:55:39.145Z,22.23
2023-04-16T01:57:41.342Z,21.90
2023-04-16T02:01:45.110Z,23.00
2023-04-16T02:03:47.823Z,23.73
2023-04-16T02:05:50.042Z,22.58
2023-04-16T02:09:54.046Z,22.50
2023-04-16T02:11:55.939Z,22.75
2023-04-16T02:13:57.808Z,22.30
2023-04-16T02:15:59.796Z,23.13
2023-04-16T02:18:01.759Z,21.88
2023-04-16T02:22:07.732Z,22.02
2023-04-16T02:24:09.649Z,24.17
2023-04-16T02:26:13.541Z,23.70
2023-04-16T02:28:16.805Z,24.02
2023-04-16T02:30:20.283Z,22.92
2023-04-16T02:32:22.428Z,22.10
2023-04-16T02:34:24.403Z,22.77
2023-04-16T02:36:27.460Z,21.30
2023-04-16T02:38:29.295Z,20.50
2023-04-16T02:40:31.825Z,19.40
2023-04-16T02:42:33.661Z,20.75
2023-04-16T02:44:35.576Z,20.17
2023-04-16T02:46:37.454Z,22.02
2023-04-16T02:48:39.324Z,22.27
2023-04-16T02:50:41.222Z,22.15
2023-04-16T02:52:43.205Z,21.33
2023-04-16T02:54:45.028Z,21.58
2023-04-16T02:56:46.883Z,22.13
2023-04-16T02:58:48.805Z,22.63
2023-04-16T03:00:51.779Z,21.20
2023-04-16T03:02:53.770Z,21.08
2023-04-16T03:06:57.501Z,21.52
2023-04-16T03:08:59.401Z,22.70
2023-04-16T03:11:01.611Z,21.65
2023-04-16T03:13:04.232Z,22.85
2023-04-16T03:15:06.547Z,23.33
2023-04-16T03:17:08.493Z,22.10
2023-04-16T03:19:10.610Z,23.42
2023-04-16T03:21:12.561Z,24.90
2023-04-16T03:23:14.467Z,27.73
2023-04-16T03:25:16.503Z,25.63
2023-04-16T03:29:20.484Z,24.07
2023-04-16T03:31:24.772Z,23.23
2023-04-16T03:33:27.116Z,23.20
2023-04-16T03:35:29.070Z,24.42
2023-04-16T03:37:30.961Z,28.25
2023-04-16T03:39:34.585Z,24.88
2023-04-16T03:41:36.658Z,24.70
2023-04-16T03:45:45.098Z,23.50
2023-04-16T03:47:52.536Z,24.83
2023-04-16T03:49:54.516Z,23.35
2023-04-16T03:51:56.347Z,25.77
2023-04-16T03:53:58.219Z,23.65
2023-04-16T03:56:00.144Z,24.92
2023-04-16T03:58:03.439Z,24.55
2023-04-16T04:00:06.038Z,23.95
2023-04-16T04:02:07.926Z,24.23
2023-04-16T04:04:10.181Z,21.77
2023-04-16T04:06:12.173Z,23.27
2023-04-16T04:08:14.072Z,23.80
2023-04-16T04:10:16.843Z,22.13
2023-04-16T04:12:18.750Z,21.05
2023-04-16T04:14:20.580Z,22.98
2023-04-16T04:16:22.468Z,24.63
2023-04-16T04:18:24.438Z,23.52
2023-04-16T04:20:26.454Z,23.60
2023-04-16T04:22:28.351Z,24.10
2023-04-16T04:24:30.201Z,24.17
2023-04-16T04:26:32.090Z,24.05
2023-04-16T04:28:34.972Z,21.90
2023-04-16T04:30:36.898Z,22.27
2023-04-16T04:32:38.841Z,23.27
2023-04-16T04:34:40.805Z,21.30
2023-04-16T04:36:42.706Z,21.92
2023-04-16T04:38:44.544Z,22.15
2023-04-16T04:40:46.930Z,21.98
2023-04-16T04:42:48.978Z,21.25
2023-04-16T04:46:52.608Z,23.10
2023-04-16T04:48:54.520Z,22.17
2023-04-16T04:50:56.404Z,21.55
2023-04-16T04:52:58.412Z,22.63
2023-04-16T04:55:00.751Z,22.25
2023-04-16T04:57:02.709Z,23.80
2023-04-16T04:59:04.719Z,23.13
2023-04-16T05:01:06.787Z,24.67
2023-04-16T05:05:14.399Z,23.80
2023-04-16T05:07:16.532Z,22.98
2023-04-16T05:11:21.584Z,24.25
2023-04-16T05:13:23.512Z,25.85
2023-04-16T05:15:25.378Z,27.02
2023-04-16T05:17:27.288Z,27.58
2023-04-16T05:19:29.236Z,24.38
2023-04-16T05:21:31.367Z,23.00
2023-04-16T05:25:35.148Z,21.57
2023-04-16T05:27:37.327Z,21.98
2023-04-16T05:29:39.233Z,21.90
2023-04-16T05:31:41.197Z,20.17
2023-04-16T05:33:43.077Z,21.45
2023-04-16T05:35:44.927Z,22.50
2023-04-16T05:37:46.809Z,22.20
2023-04-16T05:39:48.953Z,23.40
2023-04-16T05:41:50.950Z,21.60
2023-04-16T05:43:52.839Z,20.33
2023-04-16T05:45:54.726Z,20.50
2023-04-16T05:47:56.720Z,20.35
2023-04-16T05:49:58.660Z,20.38
2023-04-16T05:52:00.904Z,18.98
2023-04-16T05:54:02.784Z,19.85
2023-04-16T05:56:04.908Z,20.73
2023-04-16T05:58:06.974Z,22.60
2023-04-16T06:00:09.325Z,20.88
2023-04-16T06:02:11.421Z,20.65
2023-04-16T06:04:13.582Z,20.35
2023-04-16T06:06:15.701Z,20.73
2023-04-16T06:08:17.615Z,19.17
2023-04-16T06:10:19.506Z,22.05
2023-04-16T06:12:21.390Z,21.13
2023-04-16T06:14:23.316Z,20.58
2023-04-16T06:16:25.354Z,22.88
2023-04-16T06:20:29.466Z,21.55
2023-04-16T06:22:31.340Z,20.88
2023-04-16T06:24:33.372Z,19.70
2023-04-16T06:28:37.702Z,20.55
2023-04-16T06:30:39.917Z,20.35
2023-04-16T06:32:42.974Z,20.52
2023-04-16T06:34:44.845Z,20.17
2023-04-16T06:36:50.228Z,22.63
2023-04-16T06:38:52.091Z,24.27
2023-04-16T06:40:53.988Z,24.83
2023-04-16T06:42:56.690Z,23.90
2023-04-16T06:44:58.637Z,24.50
2023-04-16T06:47:00.543Z,24.40
2023-04-16T06:49:03.743Z,24.70
2023-04-16T06:51:05.908Z,24.88
2023-04-16T06:53:07.957Z,25.73
2023-04-16T06:57:11.930Z,23.45
2023-04-16T06:59:13.804Z,23.13
2023-04-16T07:01:15.846Z,24.98
2023-04-16T07:05:19.780Z,24.85
2023-04-16T07:07:21.697Z,23.02
2023-04-16T07:09:23.641Z,26.45
2023-04-16T07:11:26.519Z,26.48
2023-04-16T07:13:28.372Z,25.80
2023-04-16T07:15:30.402Z,26.85
2023-04-16T07:19:34.151Z,25.57
2023-04-16T07:21:36.130Z,24.92
2023-04-16T07:23:37.978Z,25.00
2023-04-16T07:25:40.248Z,24.15
2023-04-16T07:27:42.194Z,24.65
2023-04-16T07:29:45.675Z,22.73
2023-04-16T07:31:47.659Z,21.30
2023-04-16T07:33:49.674Z,21.98
2023-04-16T07:35:51.736Z,21.90
2023-04-16T07:39:57.646Z,25.60
2023-04-16T07:41:59.601Z,22.40
2023-04-16T07:44:01.908Z,23.27
2023-04-16T07:46:03.904Z,22.35
2023-04-16T07:50:08.613Z,20.75
2023-04-16T07:52:10.732Z,20.40
2023-04-16T07:56:14.314Z,17.33
2023-04-16T07:58:16.227Z,16.63
2023-04-16T08:00:18.249Z,17.38
2023-04-16T08:02:20.275Z,17.83
2023-04-16T08:06:28.097Z,16.65
2023-04-16T08:08:30.247Z,15.05
2023-04-16T08:10:33.037Z,15.52
2023-04-16T08:12:36.248Z,14.63
2023-04-16T08:14:38.107Z,17.33
2023-04-16T08:16:40.641Z,16.02
2023-04-16T08:18:42.526Z,20.00
2023-04-16T08:20:44.395Z,15.88
2023-04-16T08:22:46.790Z,17.80
2023-04-16T08:24:48.786Z,17.05
2023-04-16T08:26:50.972Z,15.70
2023-04-16T08:28:52.963Z,14.98
2023-04-16T08:30:54.882Z,12.70
2023-04-16T08:32:56.944Z,15.88
2023-04-16T08:34:59.523Z,13.82
2023-04-16T08:37:01.784Z,13.50
2023-04-16T08:39:03.848Z,15.90
2023-04-16T08:43:13.941Z,11.65
2023-04-16T08:45:17.649Z,13.13
2023-04-16T08:47:22.783Z,12.48
2023-04-16T08:49:26.441Z,12.88
2023-04-16T08:51:34.049Z,10.38
2023-04-16T08:53:48.673Z,11.35
2023-04-16T08:55:51.881Z,10.73
2023-04-16T08:57:59.818Z,12.20
2023-04-16T09:00:02.272Z,11.27
2023-04-16T09:02:05.807Z,11.80
2023-04-16T09:04:08.399Z,13.20
2023-04-16T09:06:10.895Z,11.95
2023-04-16T09:08:13.079Z,13.98
2023-04-16T09:10:16.582Z,13.07
2023-04-16T09:12:19.612Z,11.80
2023-04-16T09:14:22.219Z,11.10
2023-04-16T09:16:25.489Z,12.38
2023-04-16T09:18:28.561Z,10.52
2023-04-16T09:20:30.425Z,10.15
2023-04-16T09:22:32.534Z,9.77
2023-04-16T09:26:37.137Z,9.75
2023-04-16T09:28:57.015Z,9.60
2023-04-16T09:31:20.521Z,10.57
2023-04-16T09:33:23.028Z,10.73
2023-04-16T09:35:26.487Z,9.00
2023-04-16T09:37:31.576Z,8.70
2023-04-16T09:39:33.490Z,9.50
2023-04-16T09:41:36.180Z,8.70
2023-04-16T09:43:39.133Z,10.52
2023-04-16T09:45:51.643Z,8.77
2023-04-16T09:48:02.317Z,12.00
2023-04-16T09:50:04.406Z,9.68
2023-04-16T09:54:11.318Z,9.10
2023-04-16T09:58:19.236Z,9.95
2023-04-16T10:00:23.351Z,9.80
2023-04-16T10:02:29.388Z,9.40
2023-04-16T10:04:40.363Z,9.38
2023-04-16T10:06:42.817Z,9.35
2023-04-16T10:10:52.889Z,9.43
2023-04-16T10:12:58.175Z,9.80
2023-04-16T10:15:00.235Z,9.23
2023-04-16T10:17:04.305Z,8.38
2023-04-16T10:19:06.555Z,10.80
2023-04-16T10:23:11.859Z,8.80
2023-04-16T10:25:13.996Z,8.90
2023-04-16T10:29:20.933Z,9.20
2023-04-16T10:31:23.217Z,9.60
2023-04-16T10:33:31.986Z,11.40
2023-04-16T10:35:33.846Z,11.43
2023-04-16T10:37:37.933Z,11.93
2023-04-16T10:39:39.893Z,11.73
2023-04-16T10:41:43.072Z,12.10
2023-04-16T10:43:46.598Z,15.02
2023-04-16T10:45:48.916Z,14.13
2023-04-16T10:47:50.911Z,14.23
2023-04-16T10:49:52.838Z,12.52
2023-04-16T10:52:07.594Z,14.30
2023-04-16T10:54:10.036Z,16.50
2023-04-16T10:56:12.939Z,14.32
2023-04-16T10:58:31.213Z,14.52
2023-04-16T11:00:49.504Z,13.45
2023-04-16T11:02:54.671Z,14.80
2023-04-16T11:04:57.630Z,14.13
2023-04-16T11:07:13.897Z,10.75
2023-04-16T11:09:47.653Z,11.13
2023-04-16T11:11:50.118Z,10.43
2023-04-16T11:13:56.455Z,10.05
2023-04-16T11:15:58.886Z,9.55
2023-04-16T11:18:01.009Z,10.27
2023-04-16T11:22:05.980Z,13.25
2023-04-16T11:24:12.737Z,12.63
2023-04-16T11:26:30.568Z,10.57
2023-04-16T11:28:34.020Z,10.15
2023-04-16T11:30:38.013Z,9.20
2023-04-16T11:32:40.351Z,9.10
2023-04-16T11:34:46.000Z,9.63
2023-04-16T11:36:49.823Z,8.93
2023-04-16T11:39:01.120Z,9.13
2023-04-16T11:41:03.492Z,8.48
2023-04-16T11:43:14.559Z,9.40
2023-04-16T11:45:18.245Z,9.00
2023-04-16T11:47:20.483Z,9.30
2023-04-16T11:49:29.753Z,8.63
2023-04-16T11:51:32.525Z,8.63
2023-04-16T11:53:34.424Z,9.60
2023-04-16T11:55:45.688Z,9.30
2023-04-16T11:57:47.967Z,9.88
2023-04-16T12:00:02.430Z,9.90
2023-04-16T12:02:04.666Z,9.63
2023-04-16T12:06:10.549Z,8.55
2023-04-16T12:08:12.817Z,8.55
2023-04-16T12:10:14.693Z,6.70
2023-04-16T12:12:33.174Z,7.32
2023-04-16T12:14:35.150Z,7.22
2023-04-16T12:16:37.099Z,7.63
2023-04-16T12:18:59.318Z,8.63
2023-04-16T12:21:05.765Z,7.97
2023-04-16T12:23:08.465Z,8.18
2023-04-16T12:25:19.617Z,7.95
2023-04-16T12:27:23.016Z,7.32
2023-04-16T12:29:30.161Z,6.75
2023-04-16T12:31:38.428Z,6.40
2023-04-16T12:33:40.586Z,6.60
2023-04-16T12:37:45.549Z,6.20
2023-04-16T12:39:48.137Z,7.10
2023-04-16T12:41:50.041Z,5.63
2023-04-16T12:43:51.918Z,6.32
2023-04-16T12:45:53.920Z,6.95
2023-04-16T12:47:56.052Z,7.85
2023-04-16T12:49:58.517Z,7.18
2023-04-16T12:52:00.596Z,6.50
2023-04-16T12:58:07.286Z,6.20
2023-04-16T13:00:10.860Z,6.28
2023-04-16T13:02:13.349Z,6.38
2023-04-16T13:04:15.890Z,6.53
2023-04-16T13:06:18.299Z,6.90
2023-04-16T13:08:20.703Z,7.05
2023-04-16T13:10:23.636Z,7.90
2023-04-16T13:12:27.188Z,6.80
2023-04-16T13:14:29.057Z,6.53
2023-04-16T13:16:31.051Z,7.22
2023-04-16T13:18:33.069Z,7.30
2023-04-16T13:22:37.006Z,6.22
2023-04-16T13:26:40.990Z,6.10
2023-04-16T13:28:42.937Z,6.78
2023-04-16T13:30:46.800Z,6.63
2023-04-16T13:32:48.778Z,6.25
2023-04-16T13:34:50.921Z,5.63
2023-04-16T13:38:54.618Z,7.35
2023-04-16T13:40:56.537Z,6.80
2023-04-16T13:42:59.389Z,6.88
2023-04-16T13:45:01.382Z,6.63
2023-04-16T13:49:05.407Z,7.22
2023-04-16T13:53:10.290Z,5.95
2023-04-16T13:55:14.122Z,6.60
2023-04-16T13:57:16.094Z,6.47
2023-04-16T13:59:18.735Z,6.88
2023-04-16T14:01:20.788Z,7.15
2023-04-16T14:05:27.022Z,7.25
2023-04-16T14:07:29.268Z,7.05
2023-04-16T14:09:31.359Z,7.40
2023-04-16T14:13:35.291Z,7.72
2023-04-16T14:15:37.172Z,7.07
2023-04-16T14:17:39.164Z,7.15
2023-04-16T14:21:42.938Z,7.18
2023-04-16T14:23:44.833Z,7.82
2023-04-16T14:25:46.739Z,7.38
2023-04-16T14:27:48.688Z,7.55
2023-04-16T14:29:51.010Z,7.22
2023-04-16T14:31:52.988Z,8.10
2023-04-16T14:33:54.879Z,8.73
2023-04-16T14:35:56.830Z,7.47
2023-04-16T14:37:58.763Z,7.57
2023-04-16T14:40:00.947Z,7.57
2023-04-16T14:42:03.327Z,8.00
2023-04-16T14:44:06.176Z,7.70
2023-04-16T14:46:08.095Z,7.65
2023-04-16T14:48:10.148Z,7.28
2023-04-16T14:54:16.528Z,7.35
2023-04-16T14:58:20.352Z,6.90
2023-04-16T15:02:24.244Z,6.82
2023-04-16T15:06:28.700Z,6.40
2023-04-16T15:10:32.974Z,7.10
2023-04-16T15:12:35.011Z,6.60
2023-04-16T15:16:38.731Z,6.50
2023-04-16T15:18:40.787Z,5.50
2023-04-16T15:20:42.718Z,6.55
2023-04-16T15:22:44.612Z,6.80
2023-04-16T15:24:46.516Z,8.05
2023-04-16T15:26:48.374Z,6.85
2023-04-16T15:28:50.232Z,6.00
2023-04-16T15:30:52.723Z,7.22
2023-04-16T15:32:55.276Z,7.03
2023-04-16T15:34:57.164Z,6.13
2023-04-16T15:36:59.070Z,5.82
2023-04-16T15:39:00.955Z,5.60
2023-04-16T15:41:02.896Z,6.90
2023-04-16T15:43:06.582Z,6.18
2023-04-16T15:45:08.729Z,7.82
2023-04-16T15:49:12.769Z,6.82
2023-04-16T15:51:14.649Z,6.50
2023-04-16T15:53:16.713Z,7.03
2023-04-16T15:57:21.277Z,7.97
2023-04-16T15:59:23.151Z,7.25
2023-04-16T16:01:25.124Z,7.38
2023-04-16T16:03:27.464Z,6.68
2023-04-16T16:05:29.468Z,7.47
2023-04-16T16:07:32.517Z,6.53
2023-04-16T16:09:35.504Z,7.10
2023-04-16T16:11:38.417Z,6.93
2023-04-16T16:13:41.773Z,7.70
2023-04-16T16:15:44.271Z,6.00
2023-04-16T16:17:46.245Z,6.40
2023-04-16T16:19:48.179Z,6.38
2023-04-16T16:21:50.056Z,7.03
2023-04-16T16:23:51.995Z,6.53
2023-04-16T16:25:54.511Z,6.85
2023-04-16T16:27:56.489Z,6.80
2023-04-16T16:30:00.787Z,6.63
2023-04-16T16:32:02.859Z,7.50
2023-04-16T16:34:04.847Z,7.03
2023-04-16T16:36:10.611Z,6.90
2023-04-16T16:38:12.591Z,7.57
2023-04-16T16:40:14.611Z,6.78
2023-04-16T16:42:19.742Z,6.53
2023-04-16T16:44:22.735Z,7.03
2023-04-16T16:46:24.648Z,7.07
2023-04-16T16:48:26.539Z,6.30
2023-04-16T16:50:28.412Z,6.85
2023-04-16T16:52:30.283Z,7.75
2023-04-16T16:54:32.158Z,7.75
2023-04-16T16:56:34.406Z,8.07
2023-04-16T16:58:36.279Z,9.57
2023-04-16T17:00:38.163Z,11.50
2023-04-16T17:02:41.125Z,10.32
2023-04-16T17:04:43.294Z,9.40
2023-04-16T17:06:45.315Z,6.70
2023-04-16T17:10:49.695Z,6.63
2023-04-16T17:14:55.929Z,7.75
2023-04-16T17:16:57.844Z,7.18
2023-04-16T17:19:00.126Z,7.47
2023-04-16T17:21:02.026Z,7.65
2023-04-16T17:23:03.975Z,7.60
2023-04-16T17:25:07.633Z,7.90
2023-04-16T17:27:09.578Z,7.80
2023-04-16T17:29:11.672Z,7.88
2023-04-16T17:33:17.199Z,8.30
2023-04-16T17:35:19.168Z,8.50
2023-04-16T17:37:21.105Z,8.43
2023-04-16T17:39:23.052Z,8.20
2023-04-16T17:41:24.918Z,9.05
2023-04-16T17:43:28.281Z,7.00
2023-04-16T17:45:30.311Z,7.63
2023-04-16T17:47:34.142Z,7.65
2023-04-16T17:49:36.130Z,8.38
2023-04-16T17:51:38.052Z,7.93
2023-04-16T17:53:39.958Z,7.82
2023-04-16T17:55:50.959Z,7.13
2023-04-16T17:57:52.854Z,8.15
2023-04-16T17:59:54.708Z,7.68
2023-04-16T18:01:56.840Z,7.18
2023-04-16T18:03:58.986Z,7.25
2023-04-16T18:08:03.008Z,8.70
2023-04-16T18:10:05.744Z,8.45
2023-04-16T18:12:08.185Z,8.43
2023-04-16T18:14:11.692Z,8.90
2023-04-16T18:16:17.536Z,10.50
2023-04-16T18:18:20.604Z,8.82
2023-04-16T18:20:22.613Z,8.15
2023-04-16T18:22:26.311Z,7.72
2023-04-16T18:24:29.492Z,7.45
2023-04-16T18:26:33.742Z,6.97
2023-04-16T18:28:37.832Z,8.48
2023-04-16T18:30:40.567Z,7.60
2023-04-16T18:32:59.850Z,7.85
2023-04-16T18:35:09.011Z,7.38
2023-04-16T18:37:10.902Z,6.78
2023-04-16T18:39:12.921Z,7.20
2023-04-16T18:41:19.483Z,6.68
2023-04-16T18:43:21.323Z,7.00
2023-04-16T18:45:23.241Z,7.10
2023-04-16T18:47:25.565Z,6.30
2023-04-16T18:49:27.462Z,7.18
2023-04-16T18:51:29.314Z,6.15
2023-04-16T18:53:31.479Z,7.07
2023-04-16T18:55:33.324Z,5.97
2023-04-16T18:57:35.357Z,5.68
2023-04-16T18:59:37.427Z,5.80
2023-04-16T19:03:42.114Z,6.27
2023-04-16T19:05:44.747Z,7.05
2023-04-16T19:07:46.802Z,6.13
2023-04-16T19:11:50.746Z,6.70
2023-04-16T19:13:52.668Z,5.80
2023-04-16T19:16:01.172Z,6.25
2023-04-16T19:18:03.436Z,6.68
2023-04-16T19:20:10.599Z,5.80
2023-04-16T19:22:12.483Z,6.40
2023-04-16T19:24:14.383Z,6.53
2023-04-16T19:26:16.358Z,7.10
2023-04-16T19:28:18.558Z,6.97
2023-04-16T19:30:20.558Z,6.53
2023-04-16T19:32:22.470Z,7.20
2023-04-16T19:34:24.355Z,6.60
2023-04-16T19:36:26.579Z,6.57
2023-04-16T19:38:28.905Z,6.20
2023-04-16T19:40:33.317Z,7.15
2023-04-16T19:42:35.455Z,6.78
2023-04-16T19:46:39.093Z,6.30
2023-04-16T19:48:41.002Z,6.30
2023-04-16T19:50:43.397Z,5.88
2023-04-16T19:52:45.433Z,5.60
2023-04-16T19:56:53.271Z,7.28
2023-04-16T19:58:55.239Z,6.40
2023-04-16T20:00:57.223Z,6.45
2023-04-16T20:02:59.264Z,6.65
2023-04-16T20:07:03.559Z,7.20
2023-04-16T20:11:08.696Z,7.05
2023-04-16T20:13:12.246Z,8.10
2023-04-16T20:15:14.161Z,7.32
2023-04-16T20:17:17.900Z,8.52
2023-04-16T20:19:19.889Z,8.15
2023-04-16T20:21:21.839Z,8.50
2023-04-16T20:23:23.721Z,7.75
2023-04-16T20:25:26.315Z,8.80
2023-04-16T20:27:28.851Z,8.73
2023-04-16T20:29:30.789Z,8.00
2023-04-16T20:31:32.657Z,9.27
2023-04-16T20:33:34.522Z,7.68
2023-04-16T20:35:36.851Z,8.27
2023-04-16T20:37:39.013Z,7.28
2023-04-16T20:41:45.518Z,6.43
2023-04-16T20:43:50.223Z,6.32
2023-04-16T20:45:52.105Z,6.60
2023-04-16T20:47:54.006Z,5.75
2023-04-16T20:49:55.984Z,5.68
2023-04-16T20:51:57.849Z,6.97
2023-04-16T20:53:59.696Z,6.03
2023-04-16T20:56:01.727Z,6.00
2023-04-16T20:58:03.634Z,5.78
2023-04-16T21:00:09.212Z,5.90
2023-04-16T21:02:11.269Z,5.40
2023-04-16T21:06:17.700Z,6.18
2023-04-16T21:08:23.402Z,5.57
2023-04-16T21:10:25.324Z,5.57
2023-04-16T21:12:27.481Z,5.93
2023-04-16T21:14:29.426Z,4.93
2023-04-16T21:16:32.019Z,5.30
2023-04-16T21:18:35.162Z,5.65
2023-04-16T21:20:37.585Z,4.95
2023-04-16T21:22:39.580Z,5.20
2023-04-16T21:24:41.426Z,5.53
2023-04-16T21:26:43.343Z,5.40
2023-04-16T21:28:45.315Z,5.03
2023-04-16T21:30:50.782Z,5.88
2023-04-16T21:32:52.696Z,5.05
2023-04-16T21:34:54.555Z,6.25
2023-04-16T21:36:56.404Z,5.93
2023-04-16T21:38:58.323Z,5.03
2023-04-16T21:41:01.854Z,5.30
2023-04-16T21:43:03.687Z,4.40
2023-04-16T21:45:08.063Z,4.88
2023-04-16T21:47:10.006Z,4.85
2023-04-16T21:49:12.013Z,4.72
2023-04-16T21:53:16.014Z,4.72
2023-04-16T21:55:17.934Z,5.05
2023-04-16T21:57:19.904Z,4.30
2023-04-16T21:59:21.770Z,4.40
2023-04-16T22:01:23.759Z,3.95
2023-04-16T22:03:30.430Z,4.03
2023-04-16T22:05:33.298Z,3.97
2023-04-16T22:07:36.886Z,4.25
2023-04-16T22:09:39.198Z,4.10
2023-04-16T22:11:41.034Z,4.00
2023-04-16T22:13:42.979Z,3.83
2023-04-16T22:15:46.147Z,4.28
2023-04-16T22:17:48.535Z,3.95
2023-04-16T22:19:50.839Z,3.97
2023-04-16T22:21:53.059Z,3.95
2023-04-16T22:23:54.881Z,3.70
2023-04-16T22:25:57.048Z,4.22
2023-04-16T22:27:59.463Z,4.13
2023-04-16T22:30:01.836Z,4.47
2023-04-16T22:32:03.841Z,3.72
2023-04-16T22:34:05.841Z,4.07
2023-04-16T22:36:07.982Z,4.18
2023-04-16T22:40:12.274Z,4.57
2023-04-16T22:44:15.887Z,4.60
2023-04-16T22:46:19.924Z,4.18
2023-04-16T22:48:22.009Z,4.30
2023-04-16T22:52:25.792Z,4.40
2023-04-16T22:54:31.149Z,4.30
2023-04-16T22:56:33.484Z,4.60
2023-04-16T22:58:35.433Z,5.30
2023-04-16T23:00:37.298Z,4.72
2023-04-16T23:02:39.248Z,5.10
2023-04-16T23:04:41.175Z,5.00
2023-04-16T23:06:43.224Z,4.88
2023-04-16T23:10:47.091Z,4.43
2023-04-16T23:12:48.971Z,5.65
2023-04-16T23:14:51.318Z,4.60
2023-04-16T23:16:53.231Z,4.60
2023-04-16T23:18:55.250Z,4.72
2023-04-16T23:22:58.908Z,5.10
2023-04-16T23:25:00.735Z,5.00
2023-04-16T23:27:02.808Z,5.43
2023-04-16T23:31:07.407Z,4.93
2023-04-16T23:33:09.550Z,5.43
2023-04-16T23:35:11.441Z,4.75
2023-04-16T23:37:13.336Z,5.15
2023-04-16T23:39:15.444Z,5.13
2023-04-16T23:43:19.393Z,5.20
2023-04-16T23:45:21.291Z,5.00
2023-04-16T23:47:23.630Z,5.32
2023-04-16T23:49:25.603Z,5.45
2023-04-16T23:51:27.670Z,5.38
2023-04-16T23:55:31.442Z,4.72
2023-04-16T23:57:33.377Z,4.93
2023-04-16T23:59:38.062Z,4.70
